Fort Lauderdale, FL (33304)

5:46 PM EDT on April 19, 2015 (GMT -0400)
APRSWXNET | | Change Station
CLOSE
Current Station
Personal Weather Station
Location: Fort Lauderdale, FL
Elevation: 6 ft
Nearby Weather Stations

Elev 6 ft 26.11 °N, 80.12 °W | Updated 30 minutes ago

Clear
Clear
82 °F
Feels Like 88 °F
N
4
Wind Variable Wind from SSE
Gusts 13.0 mph

Today
High -- | Low -- °F
--% Chance of Precip.
Yesterday
High -- | Low -- °F
Precip. -- in
6:53 AM 7:45 PM
New Moon, 2% visible
Pressure 29.89 in
Visibility 10.0 miles
Clouds Few 3500 ft
Few 25000 ft
Heat Index 88 °F
Dew Point 73 °F
Humidity 75%
Rainfall in
Snow Depth Not available.
UV 5 out of 12
Pollen 6.20 out of 12
Air Quality Not available.
Flu Activity Local Activity
METAR KFLL 192053Z 17008KT 10SM FEW035 FEW250 31/20 A2989 RMK AO2 SLP121 T03110200 56015

More Conditions Fewer Conditions

Pressure 29.89 in
Visibility 10.0 miles
Clouds Few 3500 ft
Few 25000 ft
Heat Index 88 °F
Dew Point 73 °F
Humidity 75%
Rainfall in
Snow Depth Not available.
UV 5 out of 12
Pollen 6.20 out of 12
Air Quality Not available.
Flu Activity Local Activity
METAR KFLL 192053Z 17008KT 10SM FEW035 FEW250 31/20 A2989 RMK AO2 SLP121 T03110200 56015

More Conditions Fewer Conditions

10-Day Weather Forecast

Almanac

Astronomy

Apr. 19, 2015 Rise Set
Actual Time
Civil Twilight
Nautical Twilight
Astronomical Twilight
Moon
Length of Visible Light
Length of Day
Tomorrow will be .
, % of the Moon is Illuminated

Today's Extremes

State Highs State Lows

Community

WunderPhotos

Upload Photos

1,814,994 photos uploaded!

WunderBlogs® & News

Nearby

Air Quality

  Air Quality AQ Index Pollutant
Not available.

Snow Depth

Station Depth Elevation

Earthquake Activity

City Distance Mag. Time & Date
Minimum magnitude displayed is 2.5.

Coastal Water Temperatures

Place Temperature

Stations

Nearby Weather Stations

Station Location Temp. Windchill Dew Point Humidity Wind Precip. Elev Updated Type